createdAt,value
2017-04-22T00:00:57.630Z,68.84
2017-04-22T00:01:57.617Z,68.56
2017-04-22T00:02:57.610Z,68.27
2017-04-22T00:03:57.300Z,68.46
2017-04-22T00:04:57.597Z,68.75
2017-04-22T00:05:57.586Z,68.94
2017-04-22T00:06:57.584Z,68.56
2017-04-22T00:07:57.569Z,68.18
2017-04-22T00:08:57.562Z,68.27
2017-04-22T00:09:57.550Z,68.56
2017-04-22T00:10:57.545Z,68.56
2017-04-22T00:11:57.536Z,68.46
2017-04-22T00:12:57.528Z,68.84
2017-04-22T00:13:57.523Z,68.65
2017-04-22T00:14:57.510Z,68.65
2017-04-22T00:15:57.508Z,69.04
2017-04-22T00:16:57.496Z,67.8
2017-04-22T00:17:57.486Z,67.32
2017-04-22T00:18:57.479Z,66.14
2017-04-22T00:19:57.471Z,66.24
2017-04-22T00:20:57.461Z,66.05
2017-04-22T00:21:57.451Z,66.43
2017-04-22T00:22:57.443Z,66.43
2017-04-22T00:23:57.443Z,66.91
2017-04-22T00:24:57.428Z,66.62
2017-04-22T00:25:57.419Z,67.19
2017-04-22T00:26:57.409Z,66.53
2017-04-22T00:27:57.404Z,66.53
2017-04-22T00:28:57.394Z,66.33
2017-04-22T00:29:57.083Z,66.68
2017-04-22T00:30:57.378Z,67.57
2017-04-22T00:31:57.365Z,68.01
2017-04-22T00:32:57.362Z,67.54
2017-04-22T00:33:57.367Z,65.92
2017-04-22T00:34:57.342Z,65.83
2017-04-22T00:35:57.332Z,65.45
2017-04-22T00:36:57.322Z,66.02
2017-04-22T00:37:57.317Z,66.3
2017-04-22T00:38:57.305Z,66.3
2017-04-22T00:39:57.297Z,66.78
2017-04-22T00:40:57.290Z,66.59
2017-04-22T00:41:57.279Z,67.25
2017-04-22T00:42:57.273Z,66.87
2017-04-22T00:43:57.262Z,66.68
2017-04-22T00:44:57.254Z,66.2
2017-04-22T00:45:57.245Z,66.3
2017-04-22T00:46:57.234Z,65.64
2017-04-22T00:47:57.226Z,65.45
2017-04-22T00:48:57.218Z,65.54
2017-04-22T00:49:57.209Z,65.92
2017-04-22T00:50:57.198Z,65.83
2017-04-22T00:51:57.191Z,65.64
2017-04-22T00:52:57.182Z,65.35
2017-04-22T00:53:57.174Z,65.51
2017-04-22T00:54:57.163Z,65.13
2017-04-22T00:55:57.160Z,64.94
2017-04-22T00:56:57.146Z,64.94
2017-04-22T00:57:57.135Z,65.6
2017-04-22T00:58:57.126Z,65.32
2017-04-22T00:59:57.118Z,66.27
2017-04-22T01:00:57.109Z,65.51
2017-04-22T01:01:57.103Z,65.32
2017-04-22T01:02:57.090Z,66.08
2017-04-22T01:03:57.081Z,65.13
2017-04-22T01:04:57.073Z,66.55
2017-04-22T01:05:57.062Z,65.89
2017-04-22T01:06:57.053Z,65.8
2017-04-22T01:07:57.045Z,65.09
2017-04-22T01:08:57.034Z,65.09
2017-04-22T01:09:57.027Z,65.76
2017-04-22T01:10:57.015Z,65.57
2017-04-22T01:11:57.010Z,64.81
2017-04-22T01:12:56.997Z,65.47
2017-04-22T01:13:56.987Z,65.09
2017-04-22T01:14:56.980Z,64.81
2017-04-22T01:15:56.967Z,65.47
2017-04-22T01:16:56.981Z,65.47
2017-04-22T01:17:56.949Z,64.81
2017-04-22T01:18:56.940Z,65
2017-04-22T01:19:57.079Z,65.47
2017-04-22T01:20:56.921Z,65.16
2017-04-22T01:21:56.911Z,64.87
2017-04-22T01:22:56.901Z,64.78
2017-04-22T01:23:56.891Z,64.87
2017-04-22T01:24:56.883Z,64.78
2017-04-22T01:25:56.871Z,64.97
2017-04-22T01:26:56.861Z,64.69
2017-04-22T01:27:56.853Z,64.87
2017-04-22T01:28:56.842Z,64.78
2017-04-22T01:29:56.836Z,64.87
2017-04-22T01:30:57.123Z,64.87
2017-04-22T01:31:56.811Z,65.54
2017-04-22T01:32:56.500Z,64.87
2017-04-22T01:33:56.487Z,65.25
2017-04-22T01:34:56.477Z,64.97
2017-04-22T01:35:57.076Z,65.25
2017-04-22T01:36:56.857Z,65.16
2017-04-22T01:37:56.751Z,64.87
2017-04-22T01:38:56.740Z,64.84
2017-04-22T01:39:56.730Z,64.84
2017-04-22T01:40:56.969Z,65.22
2017-04-22T01:41:56.710Z,65.44
2017-04-22T01:42:56.701Z,64.97
2017-04-22T01:43:56.690Z,65.41
2017-04-22T01:44:56.679Z,64.75
2017-04-22T01:45:56.917Z,65.35
2017-04-22T01:46:56.662Z,65.03
2017-04-22T01:47:56.653Z,64.97
2017-04-22T01:48:56.637Z,64.84
2017-04-22T01:49:56.628Z,65.31
2017-04-22T01:50:56.916Z,65.69
2017-04-22T01:51:56.605Z,65.5
2017-04-22T01:52:56.597Z,65.5
2017-04-22T01:53:56.675Z,65.5
2017-04-22T01:54:56.574Z,65.5
2017-04-22T01:55:56.815Z,65.22
2017-04-22T01:56:56.552Z,65.41
2017-04-22T01:57:56.239Z,65.6
2017-04-22T01:58:56.532Z,65.5
2017-04-22T01:59:56.522Z,65.5
2017-04-22T02:00:56.811Z,65.41
2017-04-22T02:01:56.501Z,65.5
2017-04-22T02:02:56.491Z,65.69
2017-04-22T02:03:56.480Z,65.6
2017-04-22T02:04:56.470Z,65.31
2017-04-22T02:05:56.708Z,65.12
2017-04-22T02:06:56.447Z,65.88
2017-04-22T02:07:56.437Z,65.03
2017-04-22T02:08:56.427Z,65.31
2017-04-22T02:09:56.417Z,65.22
2017-04-22T02:10:56.703Z,65.31
2017-04-22T02:11:56.396Z,65.22
2017-04-22T02:12:56.412Z,65.31
2017-04-22T02:13:56.378Z,65.5
2017-04-22T02:14:56.362Z,65.31
2017-04-22T02:15:56.601Z,65.12
2017-04-22T02:16:56.340Z,65.22
2017-04-22T02:17:56.330Z,65.12
2017-04-22T02:18:56.318Z,65.12
2017-04-22T02:19:56.308Z,65.31
2017-04-22T02:20:56.599Z,65.22
2017-04-22T02:21:55.981Z,65.12
2017-04-22T02:22:56.275Z,65.5
2017-04-22T02:23:55.960Z,65.31
2017-04-22T02:24:56.253Z,65.31
2017-04-22T02:25:55.938Z,65.31
2017-04-22T02:26:56.231Z,65.5
2017-04-22T02:27:56.243Z,65.31
2017-04-22T02:28:55.905Z,65.28
2017-04-22T02:29:56.198Z,65.28
2017-04-22T02:30:56.187Z,65.66
2017-04-22T02:31:56.182Z,65.19
2017-04-22T02:32:56.172Z,65.28
2017-04-22T02:33:56.155Z,65.75
2017-04-22T02:34:56.145Z,65.85
2017-04-22T02:35:55.833Z,65.66
2017-04-22T02:36:56.134Z,65.66
2017-04-22T02:37:56.111Z,65.56
2017-04-22T02:38:56.102Z,65.56
2017-04-22T02:39:56.090Z,65.66
2017-04-22T02:40:56.097Z,65.56
2017-04-22T02:41:56.066Z,65.75
2017-04-22T02:42:56.056Z,65.75
2017-04-22T02:43:56.047Z,65.85
2017-04-22T02:44:56.035Z,65.66
2017-04-22T02:45:56.022Z,65.95
2017-04-22T02:46:56.010Z,65.85
2017-04-22T02:47:55.999Z,66.04
2017-04-22T02:48:55.990Z,65.95
2017-04-22T02:49:55.977Z,65.66
2017-04-22T02:50:55.970Z,65.75
2017-04-22T02:51:55.955Z,65.44
2017-04-22T02:52:55.945Z,65.53
2017-04-22T02:53:55.933Z,65.34
2017-04-22T02:54:55.921Z,65.91
2017-04-22T02:55:55.606Z,65.91
2017-04-22T02:56:55.897Z,66.01
2017-04-22T02:57:55.885Z,65.82
2017-04-22T02:58:55.875Z,66.29
2017-04-22T02:59:55.864Z,66.39
2017-04-22T03:00:55.853Z,66.1
2017-04-22T03:01:55.844Z,66.48
2017-04-22T03:02:55.832Z,66.01
2017-04-22T03:03:55.819Z,66.2
2017-04-22T03:04:55.808Z,66.1
2017-04-22T03:05:55.796Z,66.2
2017-04-22T03:06:55.786Z,66.1
2017-04-22T03:07:55.773Z,66.29
2017-04-22T03:08:55.788Z,66.2
2017-04-22T03:09:55.749Z,66.2
2017-04-22T03:10:55.740Z,66.01
2017-04-22T03:11:56.027Z,66.2
2017-04-22T03:12:55.714Z,66.2
2017-04-22T03:13:55.705Z,66.2
2017-04-22T03:14:55.390Z,66.29
2017-04-22T03:15:55.680Z,66.39
2017-04-22T03:16:55.615Z,66.58
2017-04-22T03:17:55.658Z,66.29
2017-04-22T03:18:55.646Z,66.58
2017-04-22T03:19:55.633Z,66.39
2017-04-22T03:20:55.620Z,66.77
2017-04-22T03:21:55.607Z,66.39
2017-04-22T03:22:55.297Z,66.86
2017-04-22T03:23:55.284Z,66.67
2017-04-22T03:24:55.575Z,66.48
2017-04-22T03:25:55.591Z,67.05
2017-04-22T03:26:55.851Z,66.86
2017-04-22T03:27:55.541Z,67.24
2017-04-22T03:28:55.529Z,66.77
2017-04-22T03:29:55.520Z,66.67
2017-04-22T03:30:55.524Z,67.05
2017-04-22T03:31:55.743Z,67.14
2017-04-22T03:32:55.484Z,66.93
2017-04-22T03:33:55.472Z,66.93
2017-04-22T03:34:55.458Z,67.14
2017-04-22T03:35:55.447Z,66.96
2017-04-22T03:36:55.683Z,66.93
2017-04-22T03:37:55.422Z,66.96
2017-04-22T03:38:55.411Z,67.14
2017-04-22T03:39:55.398Z,66.67
2017-04-22T03:40:55.386Z,67.24
2017-04-22T03:41:55.625Z,66.96
2017-04-22T03:42:55.363Z,66.86
2017-04-22T03:43:55.352Z,66.96
2017-04-22T03:44:55.340Z,66.64
2017-04-22T03:45:55.326Z,66.74
2017-04-22T03:46:55.665Z,66.86
2017-04-22T03:47:55.306Z,66.77
2017-04-22T03:48:55.293Z,66.58
2017-04-22T03:49:55.279Z,66.77
2017-04-22T03:50:55.271Z,66.77
2017-04-22T03:51:55.557Z,66.67
2017-04-22T03:52:55.245Z,66.1
2017-04-22T03:53:55.232Z,66.39
2017-04-22T03:54:55.221Z,66.39
2017-04-22T03:55:55.210Z,66.39
2017-04-22T03:56:55.446Z,66.77
2017-04-22T03:57:55.183Z,66.39
2017-04-22T03:58:55.172Z,66.48
2017-04-22T03:59:55.162Z,66.29
2017-04-22T04:00:55.148Z,66.48
2017-04-22T04:01:55.437Z,66.35
2017-04-22T04:02:55.125Z,66.45
2017-04-22T04:03:55.112Z,66.48
2017-04-22T04:04:55.101Z,66.48
2017-04-22T04:05:55.089Z,66.29
2017-04-22T04:06:55.101Z,66.58
2017-04-22T04:07:55.067Z,66.58
2017-04-22T04:08:55.053Z,66.48
2017-04-22T04:09:55.042Z,66.58
2017-04-22T04:10:55.029Z,66.48
2017-04-22T04:11:54.715Z,66.48
2017-04-22T04:12:55.007Z,66.48
2017-04-22T04:13:54.995Z,66.48
2017-04-22T04:14:54.983Z,66.48
2017-04-22T04:15:54.971Z,66.39
2017-04-22T04:16:54.959Z,66.48
2017-04-22T04:17:54.947Z,66.39
2017-04-22T04:18:54.936Z,66.48
2017-04-22T04:19:55.177Z,66.48
2017-04-22T04:20:54.913Z,66.48
2017-04-22T04:21:54.901Z,66.48
2017-04-22T04:22:54.890Z,66.48
2017-04-22T04:23:54.876Z,66.01
2017-04-22T04:24:54.867Z,65.91
2017-04-22T04:25:54.854Z,66.01
2017-04-22T04:26:54.843Z,66.01
2017-04-22T04:27:54.830Z,66.1
2017-04-22T04:28:54.819Z,66.1
2017-04-22T04:29:54.807Z,66.01
2017-04-22T04:30:54.796Z,66.1
2017-04-22T04:31:54.786Z,66.29
2017-04-22T04:32:54.774Z,65.91
2017-04-22T04:33:54.762Z,65.91
2017-04-22T04:34:54.753Z,66.42
2017-04-22T04:35:54.740Z,66.33
2017-04-22T04:36:54.730Z,66.33
2017-04-22T04:37:54.716Z,66.04
2017-04-22T04:38:54.709Z,66.33
2017-04-22T04:39:54.695Z,66.04
2017-04-22T04:40:54.380Z,66.42
2017-04-22T04:41:54.671Z,66.04
2017-04-22T04:42:54.663Z,65.75
2017-04-22T04:43:54.649Z,65.95
2017-04-22T04:44:54.642Z,66.04
2017-04-22T04:45:54.628Z,65.98
2017-04-22T04:46:54.620Z,65.88
2017-04-22T04:47:54.606Z,65.88
2017-04-22T04:48:54.596Z,65.79
2017-04-22T04:49:54.587Z,65.41
2017-04-22T04:50:54.578Z,65.69
2017-04-22T04:51:54.567Z,65.69
2017-04-22T04:52:54.555Z,65.98
2017-04-22T04:53:54.545Z,65.79
2017-04-22T04:54:54.537Z,66.2
2017-04-22T04:55:54.527Z,65.73
2017-04-22T04:56:54.515Z,65.82
2017-04-22T04:57:54.499Z,66.11
2017-04-22T04:58:54.489Z,65.54
2017-04-22T04:59:54.480Z,65.82
2017-04-22T05:00:54.470Z,65.73
2017-04-22T05:01:54.458Z,65.82
2017-04-22T05:02:54.450Z,65.63
2017-04-22T05:03:54.439Z,66.01
2017-04-22T05:04:54.455Z,65.44
2017-04-22T05:05:54.418Z,66.58
2017-04-22T05:06:54.408Z,65.73
2017-04-22T05:07:54.399Z,66.3
2017-04-22T05:08:54.390Z,65.73
2017-04-22T05:09:54.380Z,65.76
2017-04-22T05:10:54.396Z,65.86
2017-04-22T05:11:54.363Z,66.42
2017-04-22T05:12:54.353Z,66.33
2017-04-22T05:13:54.341Z,65.86
2017-04-22T05:14:54.332Z,65.38
2017-04-22T05:15:54.322Z,67.09
2017-04-22T05:16:54.313Z,66.08
2017-04-22T05:17:54.309Z,65.89
2017-04-22T05:18:54.297Z,65.89
2017-04-22T05:19:54.287Z,66.08
2017-04-22T05:20:54.275Z,66.27
2017-04-22T05:21:54.266Z,65.99
2017-04-22T05:22:54.258Z,65.41
2017-04-22T05:23:54.248Z,65.89
2017-04-22T05:24:53.936Z,65.6
2017-04-22T05:25:54.233Z,65.89
2017-04-22T05:26:54.222Z,65.32
2017-04-22T05:27:54.211Z,65.6
2017-04-22T05:28:54.208Z,66.27
2017-04-22T05:29:54.196Z,65.8
2017-04-22T05:30:54.188Z,65.7
2017-04-22T05:31:54.174Z,65.89
2017-04-22T05:32:54.166Z,65.8
2017-04-22T05:33:54.156Z,65.41
2017-04-22T05:34:53.844Z,66.17
2017-04-22T05:35:54.139Z,66.46
2017-04-22T05:36:54.129Z,65.64
2017-04-22T05:37:54.122Z,65.73
2017-04-22T05:38:54.111Z,66.3
2017-04-22T05:39:54.268Z,65.83
2017-04-22T05:40:54.095Z,65.83
2017-04-22T05:41:54.085Z,65.83
2017-04-22T05:42:54.083Z,65.64
2017-04-22T05:43:54.067Z,65.73
2017-04-22T05:44:54.058Z,65.64
2017-04-22T05:45:54.049Z,65.54
2017-04-22T05:46:54.041Z,65.25
2017-04-22T05:47:54.033Z,65.83
2017-04-22T05:48:54.025Z,65.92
2017-04-22T05:49:54.015Z,65.45
2017-04-22T05:50:54.007Z,65.73
2017-04-22T05:51:53.997Z,65.54
2017-04-22T05:52:53.990Z,65.25
2017-04-22T05:53:53.982Z,65.95
2017-04-22T05:54:53.972Z,65.16
2017-04-22T05:55:53.962Z,65.45
2017-04-22T05:56:53.955Z,65.06
2017-04-22T05:57:53.948Z,65.35
2017-04-22T05:58:53.937Z,65.48
2017-04-22T05:59:53.930Z,65.19
2017-04-22T06:00:53.920Z,64.87
2017-04-22T06:01:53.915Z,65
2017-04-22T06:02:53.905Z,65.77
2017-04-22T06:03:53.896Z,65
2017-04-22T06:04:53.887Z,65.38
2017-04-22T06:05:53.880Z,65.51
2017-04-22T06:06:53.874Z,65.8
2017-04-22T06:07:54.116Z,64.87
2017-04-22T06:08:53.860Z,64.4
2017-04-22T06:09:53.851Z,64.69
2017-04-22T06:10:53.847Z,64.59
2017-04-22T06:11:53.836Z,63.73
2017-04-22T06:12:54.131Z,63.35
2017-04-22T06:13:53.824Z,63.64
2017-04-22T06:14:53.818Z,63.64
2017-04-22T06:15:53.809Z,64.91
2017-04-22T06:16:53.807Z,64.05
2017-04-22T06:17:54.097Z,63.57
2017-04-22T06:18:53.488Z,62.72
2017-04-22T06:19:53.785Z,62.94
2017-04-22T06:20:53.780Z,62.75
2017-04-22T06:21:53.777Z,62.21
2017-04-22T06:22:54.017Z,61.83
2017-04-22T06:23:53.764Z,60.11
2017-04-22T06:24:53.763Z,59.95
2017-04-22T06:25:53.752Z,59.22
2017-04-22T06:26:53.751Z,59.31
2017-04-22T06:27:54.047Z,57.62
2017-04-22T06:28:53.747Z,55.71
2017-04-22T06:29:53.741Z,55.13
2017-04-22T06:30:53.737Z,53.41
2017-04-22T06:31:53.733Z,53.89
2017-04-22T06:32:53.989Z,53.03
2017-04-22T06:33:53.728Z,53.06
2017-04-22T06:34:53.727Z,52.58
2017-04-22T06:35:53.722Z,50.7
2017-04-22T06:36:53.722Z,50.98
2017-04-22T06:37:54.068Z,50.34
2017-04-22T06:38:53.718Z,49.66
2017-04-22T06:39:53.715Z,49.86
2017-04-22T06:40:53.713Z,49.98
2017-04-22T06:41:53.713Z,49.98
2017-04-22T06:42:53.966Z,47.97
2017-04-22T06:43:53.712Z,47.13
2017-04-22T06:44:53.712Z,46.55
2017-04-22T06:45:53.710Z,46.84
2017-04-22T06:46:53.710Z,46.96
2017-04-22T06:47:54.060Z,46.86
2017-04-22T06:48:53.716Z,43.82
2017-04-22T06:49:53.709Z,42.29
2017-04-22T06:50:53.710Z,42
2017-04-22T06:51:53.405Z,42.96
2017-04-22T06:52:54.014Z,41.6
2017-04-22T06:53:53.711Z,42.29
2017-04-22T06:54:53.711Z,40.94
2017-04-22T06:55:53.711Z,39.89
2017-04-22T06:56:53.710Z,39.31
2017-04-22T06:57:53.706Z,38.64
2017-04-22T06:58:53.713Z,38.35
2017-04-22T06:59:53.709Z,39.97
2017-04-22T07:00:53.709Z,40.25
2017-04-22T07:01:53.707Z,39.58
2017-04-22T07:02:54.009Z,39.48
2017-04-22T07:03:53.707Z,39.97
2017-04-22T07:04:53.706Z,39.87
2017-04-22T07:05:53.403Z,40.44
2017-04-22T07:06:53.704Z,39.01
2017-04-22T07:07:53.955Z,38.62
2017-04-22T07:08:53.703Z,38.81
2017-04-22T07:09:53.704Z,37.28
2017-04-22T07:10:53.704Z,37.57
2017-04-22T07:11:53.703Z,36.82
2017-04-22T07:12:53.952Z,37.38
2017-04-22T07:13:53.702Z,37.76
2017-04-22T07:14:53.703Z,38.16
2017-04-22T07:15:53.704Z,37.01
2017-04-22T07:16:53.703Z,36.44
2017-04-22T07:17:53.951Z,37.49
2017-04-22T07:18:53.399Z,37.18
2017-04-22T07:19:53.702Z,37.47
2017-04-22T07:20:53.708Z,37.38
2017-04-22T07:21:53.701Z,37.65
2017-04-22T07:22:54.054Z,37.55
2017-04-22T07:23:53.701Z,38.12
2017-04-22T07:24:53.698Z,38.68
2017-04-22T07:25:53.697Z,39.54
2017-04-22T07:26:53.799Z,38.87
2017-04-22T07:27:55.997Z,38.2
2017-04-22T07:28:53.692Z,39.06
2017-04-22T07:29:53.690Z,40.19
2017-04-22T07:30:53.694Z,41.15
2017-04-22T07:31:53.687Z,42.27
2017-04-22T07:32:53.985Z,42.37
2017-04-22T07:33:53.682Z,42.76
2017-04-22T07:34:53.682Z,43.14
2017-04-22T07:35:53.676Z,43.33
2017-04-22T07:36:53.674Z,43.69
2017-04-22T07:37:53.922Z,42.85
2017-04-22T07:38:53.669Z,43.59
2017-04-22T07:39:53.665Z,44.36
2017-04-22T07:40:53.660Z,44.55
2017-04-22T07:41:53.657Z,44.62
2017-04-22T07:42:53.954Z,45.1
2017-04-22T07:43:53.652Z,45.39
2017-04-22T07:44:53.646Z,45.67
2017-04-22T07:45:53.643Z,45.58
2017-04-22T07:46:53.636Z,46.89
2017-04-22T07:47:53.933Z,46.89
2017-04-22T07:48:53.631Z,46.99
2017-04-22T07:49:53.626Z,46.92
2017-04-22T07:50:53.623Z,46.72
2017-04-22T07:51:53.619Z,46.17
2017-04-22T07:52:53.865Z,45.62
2017-04-22T07:53:53.612Z,45.45
2017-04-22T07:54:53.308Z,44.31
2017-04-22T07:55:53.611Z,41.36
2017-04-22T07:56:53.607Z,41.48
2017-04-22T07:57:53.904Z,39.56
2017-04-22T07:58:53.602Z,39.75
2017-04-22T07:59:53.605Z,40.14
2017-04-22T08:00:53.597Z,39.28
2017-04-22T08:01:53.597Z,39.47
2017-04-22T08:02:53.847Z,38.79
2017-04-22T08:03:53.595Z,38.41
2017-04-22T08:04:53.591Z,38.89
2017-04-22T08:05:53.590Z,39.16
2017-04-22T08:06:53.589Z,38.59
2017-04-22T08:07:53.890Z,38.78
2017-04-22T08:08:53.585Z,38.78
2017-04-22T08:09:53.582Z,39.25
2017-04-22T08:10:53.581Z,39.73
2017-04-22T08:11:53.576Z,39.73
2017-04-22T08:12:53.884Z,39.35
2017-04-22T08:13:53.575Z,39.83
2017-04-22T08:14:53.574Z,40.31
2017-04-22T08:15:53.569Z,40.95
2017-04-22T08:16:53.565Z,41.44
2017-04-22T08:17:53.868Z,42.3
2017-04-22T08:18:53.562Z,42.3
2017-04-22T08:19:53.558Z,40.86
2017-04-22T08:20:53.557Z,39.81
2017-04-22T08:21:53.558Z,40
2017-04-22T08:22:53.901Z,40.09
2017-04-22T08:23:53.555Z,41.51
2017-04-22T08:24:53.545Z,43.14
2017-04-22T08:25:53.548Z,43.14
2017-04-22T08:26:53.538Z,44.17
2017-04-22T08:27:53.788Z,44.84
2017-04-22T08:28:53.534Z,45.31
2017-04-22T08:29:53.532Z,44.07
2017-04-22T08:30:53.525Z,44.07
2017-04-22T08:31:53.523Z,43.98
2017-04-22T08:32:53.819Z,43.38
2017-04-22T08:33:53.516Z,43.48
2017-04-22T08:34:53.511Z,43.76
2017-04-22T08:35:53.507Z,43.38
2017-04-22T08:36:53.503Z,43.19
2017-04-22T08:37:53.752Z,43.09
2017-04-22T08:38:53.497Z,43.66
2017-04-22T08:39:53.492Z,43.48
2017-04-22T08:40:53.494Z,44.24
2017-04-22T08:41:53.505Z,43.95
2017-04-22T08:42:53.831Z,44.34
2017-04-22T08:43:53.475Z,43.57
2017-04-22T08:44:53.468Z,43.76
2017-04-22T08:45:53.469Z,43.48
2017-04-22T08:46:54.522Z,43.66
2017-04-22T08:47:53.710Z,43.86
2017-04-22T08:48:53.452Z,44.05
2017-04-22T08:49:53.453Z,42.33
2017-04-22T08:50:58.832Z,40.7
2017-04-22T08:51:53.439Z,40.52
2017-04-22T08:52:53.685Z,40.89
2017-04-22T08:53:53.431Z,41.75
2017-04-22T08:54:53.425Z,41.58
2017-04-22T08:55:53.419Z,41.11
2017-04-22T08:56:53.418Z,41.97
2017-04-22T08:57:53.712Z,40.72
2017-04-22T08:58:53.409Z,40.82
2017-04-22T08:59:53.403Z,41.11
2017-04-22T09:00:53.399Z,41.01
2017-04-22T09:01:53.395Z,42.07
2017-04-22T09:02:53.773Z,40.82
2017-04-22T09:03:53.385Z,40.63
2017-04-22T09:04:53.382Z,40.72
2017-04-22T09:05:53.383Z,39
2017-04-22T09:06:53.373Z,39.1
2017-04-22T09:07:53.629Z,39.48
2017-04-22T09:08:53.366Z,39.86
2017-04-22T09:09:53.361Z,39.39
2017-04-22T09:10:53.355Z,39.77
2017-04-22T09:11:53.351Z,40.63
2017-04-22T09:12:53.598Z,40.53
2017-04-22T09:13:53.342Z,41.11
2017-04-22T09:14:53.337Z,41.39
2017-04-22T09:15:53.332Z,40.92
2017-04-22T09:16:53.328Z,41.87
2017-04-22T09:17:53.623Z,42.73
2017-04-22T09:18:53.320Z,43.5
2017-04-22T09:19:53.318Z,45.51
2017-04-22T09:20:53.310Z,46.63
2017-04-22T09:21:53.306Z,47.87
2017-04-22T09:22:53.605Z,48.93
2017-04-22T09:23:53.297Z,48.42
2017-04-22T09:24:53.292Z,48.13
2017-04-22T09:25:53.287Z,48.23
2017-04-22T09:26:53.285Z,47.75
2017-04-22T09:27:53.527Z,47.94
2017-04-22T09:28:53.273Z,46.89
2017-04-22T09:29:53.268Z,47.37
2017-04-22T09:30:53.265Z,45.75
2017-04-22T09:31:53.262Z,45.87
2017-04-22T09:32:53.603Z,45.37
2017-04-22T09:33:53.249Z,44.51
2017-04-22T09:34:53.244Z,44.22
2017-04-22T09:35:53.240Z,43.93
2017-04-22T09:36:53.236Z,44.6
2017-04-22T09:37:53.480Z,45.08
2017-04-22T09:38:53.227Z,45.56
2017-04-22T09:39:53.220Z,45.56
2017-04-22T09:40:53.215Z,44.1
2017-04-22T09:41:53.212Z,43.43
2017-04-22T09:42:53.459Z,43.62
2017-04-22T09:43:53.207Z,43.26
2017-04-22T09:44:53.197Z,43.17
2017-04-22T09:45:53.191Z,43.17
2017-04-22T09:46:53.186Z,41.06
2017-04-22T09:47:53.551Z,40.69
2017-04-22T09:48:53.179Z,40.97
2017-04-22T09:49:53.174Z,40.2
2017-04-22T09:50:52.867Z,40.78
2017-04-22T09:51:53.162Z,41.06
2017-04-22T09:52:53.459Z,41.35
2017-04-22T09:53:52.851Z,41.26
2017-04-22T09:54:53.147Z,42.4
2017-04-22T09:55:53.144Z,43.17
2017-04-22T09:56:52.835Z,43.62
2017-04-22T09:57:53.437Z,44.1
2017-04-22T09:58:53.129Z,43.82
2017-04-22T09:59:53.124Z,43.15
2017-04-22T10:00:53.118Z,42.48
2017-04-22T10:01:53.112Z,42.48
2017-04-22T10:02:53.108Z,41.71
2017-04-22T10:03:53.101Z,41.24
2017-04-22T10:04:53.099Z,42.48
2017-04-22T10:05:53.091Z,42.38
2017-04-22T10:06:53.087Z,42.29
2017-04-22T10:07:53.081Z,41.14
2017-04-22T10:08:53.076Z,40.95
2017-04-22T10:09:53.071Z,41.05
2017-04-22T10:10:53.065Z,41.52
2017-04-22T10:11:53.058Z,41.24
2017-04-22T10:12:53.054Z,40.76
2017-04-22T10:13:53.048Z,40.66
2017-04-22T10:14:53.045Z,40.47
2017-04-22T10:15:53.038Z,40.28
2017-04-22T10:16:53.032Z,40.37
2017-04-22T10:17:53.028Z,38.76
2017-04-22T10:18:53.130Z,38.68
2017-04-22T10:19:53.017Z,39.42
2017-04-22T10:20:53.012Z,39.64
2017-04-22T10:21:53.040Z,38.96
2017-04-22T10:22:53.004Z,38.49
2017-04-22T10:23:52.997Z,38.2
2017-04-22T10:24:52.993Z,37.44
2017-04-22T10:25:52.988Z,37.65
2017-04-22T10:26:52.983Z,36.88
2017-04-22T10:27:52.979Z,37.38
2017-04-22T10:28:53.037Z,37.19
2017-04-22T10:29:52.970Z,36.23
2017-04-22T10:30:52.964Z,35.37
2017-04-22T10:31:52.960Z,34.51
2017-04-22T10:32:52.958Z,34.42
2017-04-22T10:33:52.649Z,34.99
2017-04-22T10:34:52.951Z,35.28
2017-04-22T10:35:52.948Z,35.47
2017-04-22T10:36:52.942Z,35.47
2017-04-22T10:37:52.938Z,34.99
2017-04-22T10:38:52.933Z,34.89
2017-04-22T10:39:52.928Z,35.2
2017-04-22T10:40:52.925Z,36.14
2017-04-22T10:41:52.920Z,36.9
2017-04-22T10:42:52.917Z,36.61
2017-04-22T10:43:52.913Z,37.48
2017-04-22T10:44:52.909Z,37.19
2017-04-22T10:45:52.906Z,37.95
2017-04-22T10:46:52.899Z,37.95
2017-04-22T10:47:52.903Z,39
2017-04-22T10:48:52.894Z,40.72
2017-04-22T10:49:52.890Z,40.53
2017-04-22T10:50:52.581Z,42.44
2017-04-22T10:51:52.881Z,42.71
2017-04-22T10:52:52.876Z,43.21
2017-04-22T10:53:52.872Z,42.25
2017-04-22T10:54:52.871Z,41.2
2017-04-22T10:55:52.865Z,40.92
2017-04-22T10:56:52.860Z,41.49
2017-04-22T10:57:52.859Z,41.11
2017-04-22T10:58:52.860Z,40.92
2017-04-22T10:59:52.850Z,41.11
2017-04-22T11:00:52.847Z,41.49
2017-04-22T11:01:52.841Z,41.97
2017-04-22T11:02:52.837Z,42.73
2017-04-22T11:03:52.830Z,44.05
2017-04-22T11:04:52.828Z,43.76
2017-04-22T11:05:52.824Z,42.04
2017-04-22T11:06:52.819Z,42.31
2017-04-22T11:07:52.816Z,43.07
2017-04-22T11:08:52.811Z,42.31
2017-04-22T11:09:52.809Z,42.79
2017-04-22T11:10:52.803Z,43.84
2017-04-22T11:11:52.798Z,43.07
2017-04-22T11:12:52.795Z,43.46
2017-04-22T11:13:52.791Z,43.43
2017-04-22T11:14:52.784Z,44.2
2017-04-22T11:15:52.781Z,44.29
2017-04-22T11:16:52.776Z,43.53
2017-04-22T11:17:52.770Z,42.19
2017-04-22T11:18:52.765Z,41.24
2017-04-22T11:19:52.760Z,40.97
2017-04-22T11:20:52.760Z,40.3
2017-04-22T11:21:52.750Z,40.3
2017-04-22T11:22:52.747Z,40.97
2017-04-22T11:23:52.853Z,40.11
2017-04-22T11:24:52.744Z,39.35
2017-04-22T11:25:52.729Z,38.78
2017-04-22T11:26:52.725Z,38.58
2017-04-22T11:27:52.719Z,39.64
2017-04-22T11:28:52.716Z,40.49
2017-04-22T11:29:52.711Z,40.59
2017-04-22T11:30:52.705Z,40.88
2017-04-22T11:31:52.704Z,40.89
2017-04-22T11:32:52.696Z,41.75
2017-04-22T11:33:52.689Z,41.38
2017-04-22T11:34:52.688Z,41.09
2017-04-22T11:35:52.686Z,41.38
2017-04-22T11:36:52.677Z,40.8
2017-04-22T11:37:52.672Z,40.88
2017-04-22T11:38:52.668Z,41.06
2017-04-22T11:39:52.661Z,40.97
2017-04-22T11:40:52.656Z,41.06
2017-04-22T11:41:52.651Z,40.97
2017-04-22T11:42:52.647Z,41.45
2017-04-22T11:43:52.643Z,43.05
2017-04-22T11:44:52.637Z,43.91
2017-04-22T11:45:52.630Z,44.38
2017-04-22T11:46:52.625Z,45.15
2017-04-22T11:47:52.631Z,44.77
2017-04-22T11:48:52.615Z,43.91
2017-04-22T11:49:52.609Z,44.2
2017-04-22T11:50:52.605Z,44.2
2017-04-22T11:51:52.598Z,43.72
2017-04-22T11:52:52.636Z,43.72
2017-04-22T11:53:52.588Z,43.65
2017-04-22T11:54:52.581Z,43.65
2017-04-22T11:55:52.575Z,43.93
2017-04-22T11:56:52.268Z,43.55
2017-04-22T11:57:52.567Z,42.4
2017-04-22T11:58:52.561Z,39.83
2017-04-22T11:59:52.557Z,39.65
2017-04-22T12:00:52.548Z,38.6
2017-04-22T12:01:52.544Z,38.03
2017-04-22T12:02:52.539Z,38.03
2017-04-22T12:03:52.538Z,38.32
2017-04-22T12:04:52.528Z,37.55
2017-04-22T12:05:52.523Z,37.65
2017-04-22T12:06:52.517Z,37.55
2017-04-22T12:07:52.516Z,37.28
2017-04-22T12:08:52.508Z,36.41
2017-04-22T12:09:52.502Z,37.57
2017-04-22T12:10:52.501Z,37.19
2017-04-22T12:11:52.492Z,36.61
2017-04-22T12:12:52.490Z,35.47
2017-04-22T12:13:52.483Z,35.57
2017-04-22T12:14:52.478Z,35.58
2017-04-22T12:15:52.473Z,34.91
2017-04-22T12:16:52.468Z,34.34
2017-04-22T12:17:52.467Z,33.3
2017-04-22T12:18:52.462Z,32.73
2017-04-22T12:19:52.456Z,32.44
2017-04-22T12:20:52.451Z,31.96
2017-04-22T12:21:52.448Z,32.06
2017-04-22T12:22:52.451Z,32.44
2017-04-22T12:23:52.453Z,32.71
2017-04-22T12:24:52.434Z,32.33
2017-04-22T12:25:52.431Z,31.66
2017-04-22T12:26:52.479Z,32.25
2017-04-22T12:27:52.425Z,31.77
2017-04-22T12:28:52.419Z,31.58
2017-04-22T12:29:52.416Z,32.14
2017-04-22T12:30:52.413Z,32.71
2017-04-22T12:31:52.407Z,33.57
2017-04-22T12:32:52.410Z,33.78
2017-04-22T12:33:52.399Z,34.26
2017-04-22T12:34:52.396Z,34.55
2017-04-22T12:35:52.398Z,34.64
2017-04-22T12:36:52.389Z,34.16
2017-04-22T12:37:52.391Z,32.93
2017-04-22T12:38:52.383Z,32.84
2017-04-22T12:39:52.378Z,32.75
2017-04-22T12:40:52.071Z,32.55
2017-04-22T12:41:52.369Z,32.46
2017-04-22T12:42:52.366Z,32.17
2017-04-22T12:43:52.364Z,31.79
2017-04-22T12:44:52.360Z,32.17
2017-04-22T12:45:52.358Z,32.36
2017-04-22T12:46:52.355Z,32.26
2017-04-22T12:47:52.352Z,32.93
2017-04-22T12:48:52.350Z,32.93
2017-04-22T12:49:52.344Z,33.89
2017-04-22T12:50:52.341Z,33.22
2017-04-22T12:51:52.335Z,32.86
2017-04-22T12:52:52.333Z,32.95
2017-04-22T12:53:52.331Z,32.86
2017-04-22T12:54:52.327Z,33.41
2017-04-22T12:55:52.322Z,33.8